Time;durP1;ratioP1;P1;durP2;ratioP2;P2;SDS_P1;SDS_P2;PMS_P1;PMS_P2;Temp;Humidity;BMP_temperature;BMP_pressure;BME280_temperature;BME280_humidity;BME280_pressure;Samples;Min_cycle;Max_cycle;Signal;HPM_P1;HPM_P2
2022/06/07 00:02:10;;;;;;;18.20;9.95;;;;;;;;;;5104658;28;20046;-74
2022/06/07 00:04:38;;;;;;;20.00;11.00;;;;;;;;;;5116750;28;20046;-74
2022/06/07 00:07:04;;;;;;;18.20;10.52;;;;;;;;;;5113376;28;20039;-74
2022/06/07 00:09:31;;;;;;;19.20;10.60;;;;;;;;;;5123617;28;20518;-74
2022/06/07 00:11:58;;;;;;;16.27;9.90;;;;;;;;;;5112177;28;20047;-74
2022/06/07 00:14:24;;;;;;;17.23;10.20;;;;;;;;;;5120071;27;20367;-74
2022/06/07 00:16:51;;;;;;;17.38;9.77;;;;;;;;;;5107206;27;20092;-74
2022/06/07 00:19:17;;;;;;;16.65;9.57;;;;;;;;;;5114579;27;20122;-74
2022/06/07 00:21:43;;;;;;;23.75;12.07;;;;;;;;;;5126477;27;20070;-74
2022/06/07 00:24:10;;;;;;;22.08;11.13;;;;;;;;;;5119771;27;20039;-74
2022/06/07 00:26:38;;;;;;;17.20;10.05;;;;;;;;;;5119024;27;20490;-74
2022/06/07 00:29:06;;;;;;;19.40;10.45;;;;;;;;;;5127498;27;20050;-74
2022/06/07 00:31:33;;;;;;;21.05;11.10;;;;;;;;;;5115408;27;20258;-74
2022/06/07 00:33:59;;;;;;;16.58;10.65;;;;;;;;;;5122164;27;20035;-74
2022/06/07 00:36:25;;;;;;;23.80;11.82;;;;;;;;;;5123445;27;20043;-74
2022/06/07 00:38:51;;;;;;;16.40;11.77;;;;;;;;;;5114511;27;20504;-73
2022/06/07 00:41:17;;;;;;;21.85;11.45;;;;;;;;;;5114603;27;20494;-74
2022/06/07 00:44:03;;;;;;;20.75;12.48;;;;;;;;;;5130567;27;20088;-73
2022/06/07 00:46:29;;;;;;;24.60;13.25;;;;;;;;;;5115934;27;20043;-74
2022/06/07 00:48:56;;;;;;;16.98;11.90;;;;;;;;;;5127129;27;20166;-74
2022/06/07 00:51:22;;;;;;;20.42;12.35;;;;;;;;;;5116247;27;20063;-74
2022/06/07 00:53:49;;;;;;;22.10;11.85;;;;;;;;;;5120638;27;20047;-74
2022/06/07 00:56:15;;;;;;;22.55;11.98;;;;;;;;;;5124108;27;20070;-74
2022/06/07 00:58:41;;;;;;;17.77;12.50;;;;;;;;;;5097082;27;20201;-74
2022/06/07 01:01:07;;;;;;;21.83;13.02;;;;;;;;;;5125636;27;20032;-75
2022/06/07 01:03:33;;;;;;;24.23;13.10;;;;;;;;;;5119399;27;20077;-74
2022/06/07 01:10:43;;;;;;;25.35;14.10;;;;;;;;;;5117050;27;20048;-74
2022/06/07 01:11:31;;;;;;;23.73;14.77;;;;;;;;;;5119842;27;20043;-74
2022/06/07 01:13:57;;;;;;;26.08;15.73;;;;;;;;;;5116255;27;20046;-74
2022/06/07 01:16:23;;;;;;;23.77;15.40;;;;;;;;;;5126589;27;20499;-74
2022/06/07 01:18:49;;;;;;;26.55;16.98;;;;;;;;;;5098334;27;20468;-74
2022/06/07 01:21:28;;;;;;;27.13;15.57;;;;;;;;;;5121076;27;20118;-74
2022/06/07 01:23:54;;;;;;;28.65;17.48;;;;;;;;;;5125031;27;20031;-74
2022/06/07 01:26:21;;;;;;;23.90;15.93;;;;;;;;;;5127321;27;20074;-73
2022/06/07 01:28:48;;;;;;;26.05;16.25;;;;;;;;;;5116194;27;20422;-74
2022/06/07 01:31:14;;;;;;;30.08;16.42;;;;;;;;;;5102636;28;20082;-74
2022/06/07 01:33:40;;;;;;;21.98;15.05;;;;;;;;;;5107617;27;20517;-74
2022/06/07 01:36:08;;;;;;;20.92;14.93;;;;;;;;;;5113045;27;20042;-74
2022/06/07 01:38:35;;;;;;;26.63;16.23;;;;;;;;;;5123971;27;20043;-74
2022/06/07 01:43:47;;;;;;;29.08;16.92;;;;;;;;;;5113323;27;20057;-75
2022/06/07 01:46:13;;;;;;;25.70;16.60;;;;;;;;;;5125474;27;20084;-75
2022/06/07 01:48:40;;;;;;;26.35;15.32;;;;;;;;;;5100423;27;20039;-74
2022/06/07 01:51:07;;;;;;;26.27;14.73;;;;;;;;;;5117893;27;20608;-75
2022/06/07 01:53:34;;;;;;;27.73;15.18;;;;;;;;;;5125662;27;20031;-75
2022/06/07 01:56:08;;;;;;;21.80;14.65;;;;;;;;;;5112733;27;20068;-74
2022/06/07 01:58:35;;;;;;;24.17;15.55;;;;;;;;;;5113883;27;20051;-75
2022/06/07 02:01:01;;;;;;;21.67;15.18;;;;;;;;;;5118366;27;20043;-74
2022/06/07 02:03:27;;;;;;;24.80;15.07;;;;;;;;;;5125375;27;20043;-76
2022/06/07 02:05:55;;;;;;;24.08;15.63;;;;;;;;;;5113383;27;20039;-74
2022/06/07 02:08:22;;;;;;;23.58;14.30;;;;;;;;;;5120587;27;20052;-75
2022/06/07 02:10:48;;;;;;;22.02;14.32;;;;;;;;;;5121532;27;20464;-75
2022/06/07 02:13:15;;;;;;;25.92;14.80;;;;;;;;;;5112784;27;20406;-75
2022/06/07 02:15:41;;;;;;;20.80;13.68;;;;;;;;;;5095932;27;20440;-75
2022/06/07 02:18:07;;;;;;;21.95;14.10;;;;;;;;;;5104335;28;20105;-74
2022/06/07 02:20:34;;;;;;;21.95;13.63;;;;;;;;;;5120369;27;20035;-74
2022/06/07 02:23:00;;;;;;;17.52;12.88;;;;;;;;;;5096347;28;20417;-74
2022/06/07 02:25:26;;;;;;;17.80;12.48;;;;;;;;;;5125173;27;20056;-74
2022/06/07 02:27:53;;;;;;;18.75;13.30;;;;;;;;;;5115570;27;20047;-74
2022/06/07 02:30:19;;;;;;;22.02;13.15;;;;;;;;;;5117852;27;20043;-74
2022/06/07 02:32:46;;;;;;;19.13;12.27;;;;;;;;;;5123797;27;20035;-74
2022/06/07 02:35:12;;;;;;;20.95;13.07;;;;;;;;;;5094947;27;20039;-74
2022/06/07 02:37:39;;;;;;;21.27;13.00;;;;;;;;;;5121077;27;20058;-74
2022/06/07 02:40:06;;;;;;;19.42;13.00;;;;;;;;;;5118951;27;20045;-74
2022/06/07 02:42:32;;;;;;;20.98;13.23;;;;;;;;;;5111845;27;20406;-74
2022/06/07 02:44:59;;;;;;;18.50;11.98;;;;;;;;;;5112020;27;20484;-74
2022/06/07 02:47:25;;;;;;;20.27;12.63;;;;;;;;;;5122509;27;20046;-75
2022/06/07 02:49:52;;;;;;;19.23;11.82;;;;;;;;;;5118329;27;20038;-75
2022/06/07 02:52:18;;;;;;;20.98;11.65;;;;;;;;;;5097118;28;20048;-75
2022/06/07 02:54:45;;;;;;;18.55;13.10;;;;;;;;;;5107584;27;20035;-75
2022/06/07 02:57:11;;;;;;;16.80;11.90;;;;;;;;;;5096688;27;20496;-74
2022/06/07 02:59:37;;;;;;;20.52;12.88;;;;;;;;;;5118627;27;20372;-76
2022/06/07 03:02:05;;;;;;;19.70;11.73;;;;;;;;;;5121622;27;20054;-75
2022/06/07 03:04:31;;;;;;;17.80;11.93;;;;;;;;;;5111772;27;20051;-75
2022/06/07 03:07:07;;;;;;;17.00;12.30;;;;;;;;;;5123286;27;20055;-74
2022/06/07 03:09:33;;;;;;;20.08;12.70;;;;;;;;;;5100891;27;20051;-75
2022/06/07 03:11:59;;;;;;;18.65;12.57;;;;;;;;;;5113796;27;20055;-74
2022/06/07 03:14:26;;;;;;;19.33;12.95;;;;;;;;;;5112951;27;20035;-75
2022/06/07 03:16:52;;;;;;;19.73;12.77;;;;;;;;;;5122822;27;20499;-75
2022/06/07 03:19:18;;;;;;;22.15;12.70;;;;;;;;;;5117344;27;20039;-75
2022/06/07 03:21:44;;;;;;;21.27;14.68;;;;;;;;;;5097284;28;20051;-75
2022/06/07 03:24:10;;;;;;;24.40;14.27;;;;;;;;;;5124325;27;20035;-75
2022/06/07 03:26:36;;;;;;;21.73;14.52;;;;;;;;;;5112442;28;20054;-75
2022/06/07 03:29:03;;;;;;;19.42;13.77;;;;;;;;;;5119275;27;20046;-75
2022/06/07 03:31:29;;;;;;;20.92;14.55;;;;;;;;;;5120340;28;20035;-75
2022/06/07 03:33:55;;;;;;;19.90;14.00;;;;;;;;;;5111318;28;20074;-76
2022/06/07 03:36:23;;;;;;;22.17;14.85;;;;;;;;;;5123894;28;20051;-75
2022/06/07 03:38:50;;;;;;;21.75;14.27;;;;;;;;;;5116027;28;20035;-76
2022/06/07 03:41:17;;;;;;;22.55;15.63;;;;;;;;;;5098142;28;20075;-75
2022/06/07 03:43:44;;;;;;;23.70;13.70;;;;;;;;;;5123849;28;20058;-76
2022/06/07 03:46:12;;;;;;;22.10;14.02;;;;;;;;;;5094610;28;20166;-76
2022/06/07 03:48:38;;;;;;;26.10;14.75;;;;;;;;;;5103343;28;20514;-75
2022/06/07 03:51:06;;;;;;;20.88;13.68;;;;;;;;;;5124114;27;20126;-75
2022/06/07 03:53:32;;;;;;;31.10;14.70;;;;;;;;;;5115590;27;20719;-76
2022/06/07 03:55:58;;;;;;;22.77;15.07;;;;;;;;;;5128274;27;20046;-76
2022/06/07 03:58:24;;;;;;;25.90;14.30;;;;;;;;;;5102150;27;20092;-75
2022/06/07 04:00:51;;;;;;;22.50;13.77;;;;;;;;;;5103221;28;20065;-76
2022/06/07 04:03:17;;;;;;;21.15;14.10;;;;;;;;;;5126978;27;20038;-76
2022/06/07 04:05:44;;;;;;;22.40;13.65;;;;;;;;;;5115178;27;20368;-76
2022/06/07 04:08:10;;;;;;;21.77;13.77;;;;;;;;;;5124372;27;20075;-76
2022/06/07 04:10:37;;;;;;;22.20;13.73;;;;;;;;;;5122814;27;20047;-76
2022/06/07 04:13:03;;;;;;;22.45;13.48;;;;;;;;;;5099545;28;20040;-76
2022/06/07 04:15:29;;;;;;;22.20;14.07;;;;;;;;;;5127597;27;20490;-75
2022/06/07 04:17:56;;;;;;;22.17;13.93;;;;;;;;;;5117425;27;20035;-75
2022/06/07 04:20:22;;;;;;;23.73;13.40;;;;;;;;;;5120793;27;20071;-76
2022/06/07 04:22:48;;;;;;;21.25;13.65;;;;;;;;;;5125326;27;20039;-75
2022/06/07 04:25:14;;;;;;;23.73;13.85;;;;;;;;;;5097553;27;20046;-76
2022/06/07 04:27:40;;;;;;;18.50;13.07;;;;;;;;;;5108432;28;20044;-75
2022/06/07 04:30:07;;;;;;;22.00;13.82;;;;;;;;;;5118492;27;20079;-76
2022/06/07 04:32:33;;;;;;;22.35;13.80;;;;;;;;;;5125745;27;20092;-76
2022/06/07 04:35:00;;;;;;;20.73;13.82;;;;;;;;;;5105420;27;20036;-76
2022/06/07 04:37:26;;;;;;;20.15;13.75;;;;;;;;;;5092146;28;20044;-76
2022/06/07 04:39:52;;;;;;;21.38;14.18;;;;;;;;;;5110698;27;20406;-76
2022/06/07 04:42:18;;;;;;;23.65;14.32;;;;;;;;;;5133218;27;20043;-76
2022/06/07 04:44:48;;;;;;;21.80;14.85;;;;;;;;;;5116013;27;20043;-76
2022/06/07 04:47:14;;;;;;;24.40;14.77;;;;;;;;;;5128112;27;20050;-74
2022/06/07 04:49:40;;;;;;;23.25;14.23;;;;;;;;;;5095453;28;20126;-76
2022/06/07 04:52:07;;;;;;;25.83;15.18;;;;;;;;;;5112217;28;20042;-76
2022/06/07 04:54:33;;;;;;;21.73;14.75;;;;;;;;;;5112318;28;20165;-77
2022/06/07 04:56:59;;;;;;;20.58;14.20;;;;;;;;;;5098890;27;20035;-76
2022/06/07 04:59:25;;;;;;;20.38;12.77;;;;;;;;;;5124362;27;20102;-76
2022/06/07 05:01:51;;;;;;;20.10;13.20;;;;;;;;;;5097272;28;20036;-75
2022/06/07 05:04:17;;;;;;;20.20;13.75;;;;;;;;;;5123429;27;20047;-75
2022/06/07 05:06:43;;;;;;;22.23;14.98;;;;;;;;;;5115307;27;20043;-75
2022/06/07 05:09:14;;;;;;;21.33;13.90;;;;;;;;;;5132156;27;20104;-76
2022/06/07 05:11:40;;;;;;;23.85;14.27;;;;;;;;;;5132839;27;20464;-75
2022/06/07 05:14:07;;;;;;;23.30;14.63;;;;;;;;;;5085196;28;20048;-76
2022/06/07 05:16:37;;;;;;;22.92;15.40;;;;;;;;;;5128812;27;20608;-75
2022/06/07 05:19:04;;;;;;;25.35;16.40;;;;;;;;;;5119910;27;20042;-75
2022/06/07 05:21:30;;;;;;;23.02;15.38;;;;;;;;;;5115423;27;20569;-76
2022/06/07 05:23:56;;;;;;;22.60;15.85;;;;;;;;;;5116708;27;20749;-76
2022/06/07 05:26:26;;;;;;;22.55;15.70;;;;;;;;;;5114924;27;20043;-75
2022/06/07 05:28:52;;;;;;;23.60;16.77;;;;;;;;;;5091909;27;20039;-75
2022/06/07 05:31:18;;;;;;;25.83;16.25;;;;;;;;;;5114359;27;20499;-73
2022/06/07 05:33:44;;;;;;;24.20;16.65;;;;;;;;;;5125572;27;20096;-74
2022/06/07 05:36:11;;;;;;;24.42;17.20;;;;;;;;;;5096111;27;20066;-74
2022/06/07 05:38:37;;;;;;;26.40;17.55;;;;;;;;;;5103792;28;20040;-75
2022/06/07 05:41:03;;;;;;;23.73;16.25;;;;;;;;;;5101372;27;20106;-74
2022/06/07 05:43:30;;;;;;;21.20;15.35;;;;;;;;;;5099958;28;20119;-74
2022/06/07 05:45:57;;;;;;;26.35;16.55;;;;;;;;;;5108493;27;20394;-75
2022/06/07 05:48:23;;;;;;;23.88;15.50;;;;;;;;;;5092456;28;20054;-74
2022/06/07 05:50:53;;;;;;;19.40;12.90;;;;;;;;;;5108320;28;20061;-74
2022/06/07 05:53:20;;;;;;;19.77;12.02;;;;;;;;;;5107403;27;20051;-74
2022/06/07 05:55:47;;;;;;;16.17;11.00;;;;;;;;;;5095246;27;20040;-74
2022/06/07 05:58:13;;;;;;;15.10;10.15;;;;;;;;;;5122283;27;20043;-74
2022/06/07 06:00:39;;;;;;;14.30;8.73;;;;;;;;;;5116069;27;20054;-75
2022/06/07 06:03:06;;;;;;;16.83;9.50;;;;;;;;;;5111620;27;20034;-75
2022/06/07 06:05:33;;;;;;;15.00;8.45;;;;;;;;;;5098885;27;20495;-76
2022/06/07 06:10:44;;;;;;;;;;;;;;;;;;5109991;27;20043;-84
2022/06/07 06:13:11;;;;;;;12.10;6.47;;;;;;;;;;5109903;27;19916;-85
2022/06/07 06:15:37;;;;;;;13.90;6.97;;;;;;;;;;5106674;28;20031;-84
2022/06/07 06:18:05;;;;;;;11.00;6.55;;;;;;;;;;5100932;28;20040;-86
2022/06/07 06:20:33;;;;;;;11.02;5.82;;;;;;;;;;5091366;28;20117;-85
2022/06/07 06:22:59;;;;;;;14.43;6.80;;;;;;;;;;5091716;28;20078;-83
2022/06/07 06:25:26;;;;;;;11.80;6.35;;;;;;;;;;5100689;27;20042;-82
2022/06/07 06:27:52;;;;;;;11.77;6.18;;;;;;;;;;5111082;27;20044;-83
2022/06/07 06:30:20;;;;;;;14.18;6.25;;;;;;;;;;5094831;28;20069;-79
2022/06/07 06:32:46;;;;;;;9.55;5.75;;;;;;;;;;5094052;28;20042;-83
2022/06/07 06:35:12;;;;;;;11.68;5.97;;;;;;;;;;5111331;28;20039;-82
2022/06/07 06:37:38;;;;;;;11.55;6.32;;;;;;;;;;5111008;28;20077;-81
2022/06/07 06:40:05;;;;;;;13.70;6.80;;;;;;;;;;5111241;28;20039;-80
2022/06/07 06:42:31;;;;;;;12.65;6.63;;;;;;;;;;5094038;28;20123;-83
2022/06/07 06:44:58;;;;;;;12.07;6.18;;;;;;;;;;5111074;28;20591;-83
2022/06/07 06:47:30;;;;;;;12.73;6.20;;;;;;;;;;5121175;27;20483;-84
2022/06/07 06:49:56;;;;;;;12.68;6.97;;;;;;;;;;5076081;28;20391;-78
2022/06/07 06:52:23;;;;;;;10.05;6.65;;;;;;;;;;5090486;28;20048;-83
2022/06/07 06:54:49;;;;;;;11.95;6.65;;;;;;;;;;5124063;27;20043;-80
2022/06/07 06:57:15;;;;;;;13.30;7.00;;;;;;;;;;5097989;27;20038;-81
2022/06/07 06:59:41;;;;;;;13.70;6.85;;;;;;;;;;5116267;27;20114;-81
2022/06/07 07:02:09;;;;;;;15.27;7.28;;;;;;;;;;5096873;28;20050;-81
2022/06/07 07:04:35;;;;;;;14.75;7.78;;;;;;;;;;5124650;27;20042;-83
2022/06/07 07:07:01;;;;;;;13.70;7.60;;;;;;;;;;5114744;27;20043;-84
2022/06/07 07:09:28;;;;;;;15.48;7.50;;;;;;;;;;5101230;28;20109;-91
2022/06/07 07:11:54;;;;;;;11.73;7.13;;;;;;;;;;5105766;27;20043;-80
2022/06/07 07:14:20;;;;;;;13.55;7.65;;;;;;;;;;5110185;27;20040;-83
2022/06/07 07:16:48;;;;;;;18.50;8.40;;;;;;;;;;5112775;27;20123;-77
2022/06/07 07:19:15;;;;;;;16.42;8.20;;;;;;;;;;5117770;27;20410;-78
2022/06/07 07:21:43;;;;;;;15.80;7.72;;;;;;;;;;5102582;27;20483;-77
2022/06/07 07:24:12;;;;;;;15.93;8.00;;;;;;;;;;5089293;27;20118;-82
2022/06/07 07:26:38;;;;;;;14.02;7.70;;;;;;;;;;5122260;27;20043;-74
2022/06/07 07:29:05;;;;;;;17.30;8.07;;;;;;;;;;5117835;27;20035;-82
2022/06/07 07:31:33;;;;;;;15.40;7.70;;;;;;;;;;5111530;28;20368;-84
2022/06/07 07:34:02;;;;;;;13.55;6.80;;;;;;;;;;5105802;28;20027;-81
2022/06/07 07:36:29;;;;;;;14.65;8.00;;;;;;;;;;5122444;28;20188;-81
2022/06/07 07:38:55;;;;;;;15.45;7.93;;;;;;;;;;5101358;28;20210;-82
2022/06/07 07:41:23;;;;;;;11.07;5.35;;;;;;;;;;5116123;28;20031;-80
2022/06/07 07:43:49;;;;;;;12.43;4.97;;;;;;;;;;5109811;28;20047;-81
2022/06/07 07:46:16;;;;;;;11.43;4.60;;;;;;;;;;5102015;28;20229;-80
2022/06/07 07:48:42;;;;;;;12.25;4.40;;;;;;;;;;5102293;28;20070;-80
2022/06/07 07:51:13;;;;;;;9.32;3.42;;;;;;;;;;5103818;28;20047;-80
2022/06/07 07:53:40;;;;;;;11.52;3.50;;;;;;;;;;5127246;28;20042;-81
2022/06/07 07:56:10;;;;;;;12.13;4.00;;;;;;;;;;5095993;28;20043;-74
2022/06/07 07:58:36;;;;;;;6.80;3.17;;;;;;;;;;5110916;28;20461;-77
2022/06/07 08:01:07;;;;;;;7.45;3.10;;;;;;;;;;5114630;28;20445;-76
2022/06/07 08:03:34;;;;;;;10.73;3.70;;;;;;;;;;5106866;28;20042;-76
2022/06/07 08:06:00;;;;;;;12.65;4.43;;;;;;;;;;5097131;28;20055;-76
2022/06/07 08:08:26;;;;;;;9.50;4.15;;;;;;;;;;5117962;28;20542;-76
2022/06/07 08:10:52;;;;;;;12.70;4.78;;;;;;;;;;5104413;28;20466;-78
2022/06/07 08:13:18;;;;;;;11.38;4.95;;;;;;;;;;5105697;28;20039;-77
2022/06/07 08:15:46;;;;;;;12.68;5.20;;;;;;;;;;5093098;28;20100;-78
2022/06/07 08:18:12;;;;;;;10.57;4.95;;;;;;;;;;5100568;28;20036;-72
2022/06/07 08:20:39;;;;;;;12.90;6.00;;;;;;;;;;5099661;28;20088;-74
2022/06/07 08:23:06;;;;;;;9.63;5.70;;;;;;;;;;5109149;28;20514;-78
2022/06/07 08:25:33;;;;;;;13.63;6.07;;;;;;;;;;5105723;28;20040;-73
2022/06/07 08:28:02;;;;;;;11.18;6.40;;;;;;;;;;5081832;28;20036;-75
2022/06/07 08:30:28;;;;;;;11.73;5.72;;;;;;;;;;5106210;28;20044;-77
2022/06/07 08:32:55;;;;;;;12.77;5.25;;;;;;;;;;5088709;28;20036;-75
2022/06/07 08:38:06;;;;;;;;;;;;;;;;;;5124358;27;20054;-74
2022/06/07 08:40:37;;;;;;;10.20;4.80;;;;;;;;;;5132715;27;19915;-75
2022/06/07 08:43:12;;;;;;;11.63;5.18;;;;;;;;;;5097338;27;20118;-74
2022/06/07 08:45:37;;;;;;;;;;;;;;;;;;5123420;27;20126;-73
2022/06/07 08:48:07;;;;;;;9.65;4.55;;;;;;;;;;5110365;28;20220;-72
2022/06/07 08:50:41;;;;;;;9.88;5.00;;;;;;;;;;5127145;27;20070;-76
2022/06/07 08:53:16;;;;;;;9.52;5.20;;;;;;;;;;5099321;27;20055;-74
2022/06/07 08:55:44;;;;;;;10.68;5.43;;;;;;;;;;5104602;27;20479;-77
2022/06/07 08:58:19;;;;;;;8.60;4.97;;;;;;;;;;5125576;27;20053;-75
2022/06/07 09:00:48;;;;;;;9.93;5.55;;;;;;;;;;5114047;27;20068;-78
2022/06/07 09:03:37;;;;;;;12.10;5.97;;;;;;;;;;5122754;27;20035;-76
2022/06/07 09:06:05;;;;;;;13.85;6.30;;;;;;;;;;5125002;27;20070;-77
2022/06/07 09:08:36;;;;;;;10.55;5.53;;;;;;;;;;5113855;27;20054;-75
2022/06/07 09:13:51;;;;;;;11.13;4.80;;;;;;;;;;5124251;27;20050;-76
2022/06/07 09:16:17;;;;;;;9.18;4.70;;;;;;;;;;5113354;27;20410;-74
2022/06/07 09:18:45;;;;;;;10.05;5.10;;;;;;;;;;5124498;27;20044;-76
2022/06/07 09:21:20;;;;;;;10.90;4.45;;;;;;;;;;5102853;27;20032;-75
2022/06/07 09:23:49;;;;;;;10.77;3.65;;;;;;;;;;5109843;27;20051;-74
2022/06/07 09:26:27;;;;;;;10.63;3.67;;;;;;;;;;5108422;28;20047;-76
2022/06/07 09:29:23;;;;;;;8.82;3.22;;;;;;;;;;5125785;27;20066;-76
2022/06/07 09:31:50;;;;;;;12.68;3.78;;;;;;;;;;5128681;27;20039;-81
2022/06/07 09:34:34;;;;;;;8.18;3.08;;;;;;;;;;5093664;28;20067;-78
2022/06/07 09:37:03;;;;;;;7.50;3.00;;;;;;;;;;5120050;27;20035;-71
2022/06/07 09:39:32;;;;;;;6.93;3.17;;;;;;;;;;5125786;27;20042;-73
2022/06/07 09:42:05;;;;;;;9.70;3.30;;;;;;;;;;5126852;27;20039;-73
2022/06/07 09:44:31;;;;;;;9.70;3.10;;;;;;;;;;5100066;27;20039;-72
2022/06/07 09:47:06;;;;;;;10.90;3.38;;;;;;;;;;5117505;27;20047;-73
2022/06/07 09:49:38;;;;;;;8.20;3.30;;;;;;;;;;5125985;27;20114;-72
2022/06/07 09:52:11;;;;;;;9.02;3.47;;;;;;;;;;5106706;27;20035;-74
2022/06/07 09:54:41;;;;;;;9.95;3.90;;;;;;;;;;5102952;28;20092;-79
2022/06/07 09:57:16;;;;;;;7.90;3.30;;;;;;;;;;5123673;27;20035;-75
2022/06/07 09:59:49;;;;;;;9.60;3.40;;;;;;;;;;5113087;27;20125;-75
2022/06/07 10:02:18;;;;;;;9.82;3.13;;;;;;;;;;5121649;27;20036;-74
2022/06/07 10:05:00;;;;;;;7.20;3.45;;;;;;;;;;5121236;27;20583;-76
2022/06/07 10:07:34;;;;;;;6.60;2.90;;;;;;;;;;5095651;27;20725;-76
2022/06/07 10:10:04;;;;;;;13.10;3.15;;;;;;;;;;5124251;27;20423;-75
2022/06/07 10:12:36;;;;;;;7.63;2.90;;;;;;;;;;5115174;27;20039;-75
2022/06/07 10:15:38;;;;;;;8.50;2.90;;;;;;;;;;5108720;27;20035;-76
2022/06/07 10:18:10;;;;;;;7.80;2.92;;;;;;;;;;5034912;28;20033;-78
2022/06/07 10:20:44;;;;;;;8.13;2.88;;;;;;;;;;5096155;27;20071;-77
2022/06/07 10:23:34;;;;;;;9.50;3.10;;;;;;;;;;5109731;27;20106;-77
2022/06/07 10:26:06;;;;;;;11.30;3.20;;;;;;;;;;5116077;27;20213;-77
2022/06/07 10:29:11;;;;;;;10.35;3.17;;;;;;;;;;5096285;28;20419;-78
2022/06/07 10:31:39;;;;;;;12.98;3.88;;;;;;;;;;4996126;28;20041;-77
2022/06/07 10:34:08;;;;;;;10.63;3.25;;;;;;;;;;5000994;28;20045;-76
2022/06/07 10:36:44;;;;;;;12.60;3.40;;;;;;;;;;5051968;27;20057;-76
2022/06/07 10:39:25;;;;;;;9.07;3.50;;;;;;;;;;5129093;27;20084;-77
2022/06/07 10:41:51;;;;;;;8.15;3.20;;;;;;;;;;5118797;27;20036;-77
2022/06/07 10:44:36;;;;;;;9.70;3.33;;;;;;;;;;5107882;27;20050;-79
2022/06/07 10:47:29;;;;;;;8.77;3.10;;;;;;;;;;5073521;28;20040;-77
2022/06/07 10:49:58;;;;;;;11.75;4.18;;;;;;;;;;5107614;27;20042;-78
2022/06/07 10:52:29;;;;;;;11.98;3.88;;;;;;;;;;5120979;27;20074;-78
2022/06/07 10:55:04;;;;;;;8.80;3.05;;;;;;;;;;5092272;27;20035;-77
2022/06/07 10:57:43;;;;;;;9.93;3.78;;;;;;;;;;5101944;28;20053;-78
2022/06/07 11:00:20;;;;;;;9.85;3.40;;;;;;;;;;5088968;28;20407;-78
2022/06/07 11:03:00;;;;;;;9.48;3.35;;;;;;;;;;5095951;27;20043;-77
2022/06/07 11:11:14;;;;;;;9.18;3.10;;;;;;;;;;5109290;28;20043;-77
2022/06/07 11:13:40;;;;;;;6.25;2.90;;;;;;;;;;5103895;27;20045;-79
2022/06/07 11:16:27;;;;;;;10.35;3.13;;;;;;;;;;5111480;27;20505;-77
2022/06/07 11:18:53;;;;;;;6.95;2.90;;;;;;;;;;5121099;27;20031;-77
2022/06/07 11:21:23;;;;;;;9.20;3.33;;;;;;;;;;5119975;27;20084;-76
2022/06/07 11:24:09;;;;;;;14.00;3.40;;;;;;;;;;5095277;28;20115;-77
2022/06/07 11:26:51;;;;;;;8.02;2.95;;;;;;;;;;5088716;27;20100;-77
2022/06/07 11:29:19;;;;;;;6.47;2.70;;;;;;;;;;5093644;28;20043;-78
2022/06/07 11:31:46;;;;;;;8.15;2.92;;;;;;;;;;5106913;28;20450;-77
2022/06/07 11:34:22;;;;;;;9.13;2.90;;;;;;;;;;5124245;28;20356;-79
2022/06/07 11:36:48;;;;;;;12.23;3.55;;;;;;;;;;5117399;28;20054;-77
2022/06/07 11:39:33;;;;;;;11.00;3.33;;;;;;;;;;5115140;28;20040;-76
2022/06/07 11:42:20;;;;;;;10.60;3.15;;;;;;;;;;5124205;28;20610;-77
2022/06/07 11:44:59;;;;;;;10.02;3.50;;;;;;;;;;5118354;28;20108;-78
2022/06/07 11:47:27;;;;;;;7.10;2.85;;;;;;;;;;5107376;28;20487;-78
2022/06/07 11:49:54;;;;;;;8.65;3.20;;;;;;;;;;5074002;28;20445;-77
2022/06/07 11:52:31;;;;;;;7.32;3.50;;;;;;;;;;5115092;28;20052;-78
2022/06/07 11:54:59;;;;;;;9.90;2.97;;;;;;;;;;5097770;28;20103;-78
2022/06/07 11:57:29;;;;;;;7.30;2.90;;;;;;;;;;5124338;28;20039;-77
2022/06/07 11:59:57;;;;;;;10.02;3.10;;;;;;;;;;5097223;28;20039;-77
2022/06/07 12:02:26;;;;;;;7.80;3.45;;;;;;;;;;5118491;28;20036;-77
2022/06/07 12:04:58;;;;;;;7.50;2.85;;;;;;;;;;5121534;28;20039;-78
2022/06/07 12:07:41;;;;;;;12.15;3.30;;;;;;;;;;5125754;28;20039;-77
2022/06/07 12:10:19;;;;;;;7.85;3.20;;;;;;;;;;5100568;27;20043;-77
2022/06/07 12:16:14;;;;;;;8.20;3.05;;;;;;;;;;5041356;28;20358;-77
2022/06/07 12:18:40;;;;;;;8.05;3.03;;;;;;;;;;5118003;27;20046;-78
2022/06/07 12:21:07;;;;;;;9.18;3.50;;;;;;;;;;5105876;27;20067;-77
2022/06/07 12:23:36;;;;;;;8.82;3.08;;;;;;;;;;5126315;27;20571;-78
2022/06/07 12:26:02;;;;;;;8.00;2.95;;;;;;;;;;5103811;27;20284;-78
2022/06/07 12:28:31;;;;;;;8.93;3.20;;;;;;;;;;5101055;28;20043;-77
2022/06/07 12:30:57;;;;;;;15.05;4.15;;;;;;;;;;5127528;27;20066;-78
2022/06/07 12:33:34;;;;;;;9.20;2.70;;;;;;;;;;5116494;27;20071;-78
2022/06/07 12:36:01;;;;;;;8.77;2.88;;;;;;;;;;5103439;28;20066;-78
2022/06/07 12:38:28;;;;;;;8.55;3.00;;;;;;;;;;5108694;27;20068;-77
2022/06/07 12:41:01;;;;;;;13.50;3.38;;;;;;;;;;5097867;27;20409;-79
2022/06/07 12:43:32;;;;;;;10.82;3.08;;;;;;;;;;5124396;27;20043;-78
2022/06/07 12:46:04;;;;;;;8.48;2.88;;;;;;;;;;5105271;27;20046;-78
2022/06/07 12:48:38;;;;;;;8.23;2.88;;;;;;;;;;5119993;27;20505;-78
2022/06/07 12:51:24;;;;;;;9.23;3.13;;;;;;;;;;5126640;27;20046;-78
2022/06/07 12:53:58;;;;;;;7.93;3.10;;;;;;;;;;5113917;27;20422;-80
2022/06/07 12:56:28;;;;;;;12.10;3.22;;;;;;;;;;5120635;27;20407;-78
2022/06/07 12:58:56;;;;;;;10.50;3.20;;;;;;;;;;5109025;28;20044;-77
2022/06/07 13:01:32;;;;;;;8.90;3.40;;;;;;;;;;5119941;27;20368;-79
2022/06/07 13:04:00;;;;;;;7.63;2.90;;;;;;;;;;5116208;27;20046;-79
2022/06/07 13:06:27;;;;;;;11.13;3.30;;;;;;;;;;5110291;27;20431;-78
2022/06/07 13:08:58;;;;;;;6.40;2.75;;;;;;;;;;5118660;27;20059;-78
2022/06/07 13:11:25;;;;;;;8.05;3.22;;;;;;;;;;5112725;27;20098;-79
2022/06/07 13:13:52;;;;;;;8.18;3.10;;;;;;;;;;5125675;27;20402;-77
2022/06/07 13:16:21;;;;;;;8.05;2.90;;;;;;;;;;5105272;27;20116;-79
2022/06/07 13:19:01;;;;;;;9.77;3.00;;;;;;;;;;5092340;28;20398;-78
2022/06/07 13:21:36;;;;;;;6.40;2.97;;;;;;;;;;5107939;27;20040;-79
2022/06/07 13:24:02;;;;;;;8.55;2.83;;;;;;;;;;5127039;27;20039;-78
2022/06/07 13:26:31;;;;;;;8.75;3.10;;;;;;;;;;5115513;27;20842;-78
2022/06/07 13:29:13;;;;;;;9.57;3.67;;;;;;;;;;5103715;28;20096;-78
2022/06/07 13:31:42;;;;;;;10.27;3.70;;;;;;;;;;5093429;28;20088;-77
2022/06/07 13:34:17;;;;;;;9.70;2.70;;;;;;;;;;5096435;27;20134;-78
2022/06/07 13:36:44;;;;;;;10.40;2.72;;;;;;;;;;5104748;28;20388;-77
2022/06/07 13:39:24;;;;;;;11.57;3.17;;;;;;;;;;5105539;27;20074;-78
2022/06/07 13:41:52;;;;;;;8.95;3.05;;;;;;;;;;5111657;27;20042;-77
2022/06/07 13:44:28;;;;;;;8.23;2.85;;;;;;;;;;5098911;27;20070;-78
2022/06/07 13:46:56;;;;;;;7.22;3.28;;;;;;;;;;5118527;27;20493;-79
2022/06/07 13:55:07;;;;;;;9.27;3.22;;;;;;;;;;5114172;27;20118;-78
2022/06/07 13:57:34;;;;;;;7.22;3.00;;;;;;;;;;5128005;27;20035;-79
2022/06/07 14:00:00;;;;;;;11.05;3.30;;;;;;;;;;5115257;27;20459;-78
2022/06/07 14:02:26;;;;;;;9.90;3.22;;;;;;;;;;5119522;27;20046;-77
2022/06/07 14:04:52;;;;;;;8.43;2.95;;;;;;;;;;5107503;27;20084;-79
2022/06/07 14:07:19;;;;;;;6.80;3.20;;;;;;;;;;5098182;27;20050;-79
2022/06/07 14:09:45;;;;;;;8.48;2.92;;;;;;;;;;5121507;27;20083;-79
2022/06/07 14:12:11;;;;;;;9.52;3.30;;;;;;;;;;5081084;28;20459;-78
2022/06/07 14:14:37;;;;;;;8.30;2.90;;;;;;;;;;5105144;27;20072;-77
2022/06/07 14:17:07;;;;;;;11.68;3.40;;;;;;;;;;5112075;27;20051;-78
2022/06/07 14:19:41;;;;;;;6.68;2.85;;;;;;;;;;5114099;27;20035;-78
2022/06/07 14:22:17;;;;;;;9.55;2.90;;;;;;;;;;5119510;27;20231;-78
2022/06/07 14:24:44;;;;;;;7.43;2.85;;;;;;;;;;5124177;27;20047;-78
2022/06/07 14:27:15;;;;;;;10.90;3.47;;;;;;;;;;5112691;27;20042;-79
2022/06/07 14:29:42;;;;;;;8.27;3.17;;;;;;;;;;5117109;27;20039;-78
2022/06/07 14:32:28;;;;;;;9.30;3.13;;;;;;;;;;5117617;27;20043;-79
2022/06/07 14:34:56;;;;;;;9.50;4.07;;;;;;;;;;5127060;27;20081;-80
2022/06/07 14:37:23;;;;;;;8.60;3.75;;;;;;;;;;5106568;28;20582;-80
2022/06/07 14:39:50;;;;;;;10.38;3.83;;;;;;;;;;5102348;27;20466;-77
2022/06/07 14:42:16;;;;;;;8.55;3.78;;;;;;;;;;5114956;27;20238;-79
2022/06/07 14:44:43;;;;;;;7.80;3.63;;;;;;;;;;5126608;27;20468;-78
2022/06/07 14:47:20;;;;;;;6.60;3.75;;;;;;;;;;5117488;27;20136;-80
2022/06/07 14:49:48;;;;;;;6.50;3.25;;;;;;;;;;5090503;28;20039;-79
2022/06/07 14:52:15;;;;;;;6.18;2.90;;;;;;;;;;5118409;27;20042;-78
2022/06/07 14:54:42;;;;;;;8.68;3.35;;;;;;;;;;5094739;27;20066;-79
2022/06/07 14:57:19;;;;;;;8.05;3.35;;;;;;;;;;5110221;27;20058;-77
2022/06/07 14:59:46;;;;;;;8.27;3.10;;;;;;;;;;5099161;28;20051;-79
2022/06/07 15:02:21;;;;;;;10.52;3.67;;;;;;;;;;5125147;27;20072;-77
2022/06/07 15:04:47;;;;;;;;;;;;;;;;;;5098451;27;20474;-79
2022/06/07 15:07:20;;;;;;;7.07;3.70;;;;;;;;;;5102677;28;19969;-79
2022/06/07 15:09:46;;;;;;;7.28;3.67;;;;;;;;;;5121947;27;20051;-80
2022/06/07 15:12:14;;;;;;;8.23;3.60;;;;;;;;;;5112161;27;20127;-81